createdAt,value
2018-07-02T00:00:50.304Z,19.50
2018-07-02T00:06:05.734Z,19.30
2018-07-02T00:11:09.740Z,19.30
2018-07-02T00:16:13.771Z,19.30
2018-07-02T00:21:17.771Z,18.90
2018-07-02T00:26:21.963Z,18.60
2018-07-02T00:31:26.004Z,18.60
2018-07-02T00:41:33.639Z,18.80
2018-07-02T00:46:37.648Z,18.90
2018-07-02T00:51:41.643Z,18.60
2018-07-02T00:56:45.643Z,18.30
2018-07-02T01:01:49.668Z,18.30
2018-07-02T01:06:53.791Z,18.20
2018-07-02T01:11:57.836Z,17.90
2018-07-02T01:17:04.237Z,17.80
2018-07-02T01:22:08.479Z,17.90
2018-07-02T01:27:12.468Z,17.80
2018-07-02T01:32:16.512Z,17.80
2018-07-02T01:37:20.520Z,17.80
2018-07-02T01:47:28.172Z,18.40
2018-07-02T01:52:32.150Z,18.50
2018-07-02T01:57:36.131Z,18.50
2018-07-02T02:02:40.177Z,18.70
2018-07-02T02:07:44.181Z,19.20
2018-07-02T02:12:48.269Z,22.50
2018-07-02T02:17:52.335Z,20.00
2018-07-02T02:22:56.373Z,20.10
2018-07-02T02:28:00.343Z,19.90
2018-07-02T02:38:08.021Z,19.70
2018-07-02T02:43:12.025Z,19.80
2018-07-02T02:48:16.025Z,20.00
2018-07-02T02:53:20.009Z,19.80
2018-07-02T02:58:24.028Z,19.60
2018-07-02T03:03:28.035Z,19.40
2018-07-02T03:08:32.050Z,19.50
2018-07-02T03:13:36.979Z,19.70
2018-07-02T03:18:40.972Z,19.10
2018-07-02T03:23:44.972Z,18.60
2018-07-02T03:28:48.951Z,18.50
2018-07-02T03:33:52.938Z,18.30
2018-07-02T03:38:56.976Z,17.90
2018-07-02T03:44:00.983Z,18.00
2018-07-02T03:49:05.007Z,18.00
2018-07-02T03:54:09.041Z,17.90
2018-07-02T03:59:13.048Z,18.50
2018-07-02T04:04:17.080Z,18.50
2018-07-02T04:09:21.843Z,18.20
2018-07-02T04:19:29.567Z,18.90
2018-07-02T04:24:33.538Z,19.30
2018-07-02T04:29:37.559Z,19.10
2018-07-02T04:39:45.222Z,19.00
2018-07-02T04:49:53.439Z,19.40
2018-07-02T04:54:57.450Z,19.50
2018-07-02T05:00:01.465Z,19.90
2018-07-02T05:05:05.549Z,20.00
2018-07-02T05:10:09.571Z,20.10
2018-07-02T05:15:13.708Z,20.50
2018-07-02T05:20:17.728Z,20.50
2018-07-02T05:25:21.732Z,20.70
2018-07-02T05:30:25.731Z,20.90
2018-07-02T05:35:29.739Z,20.50
2018-07-02T05:40:33.747Z,20.50
2018-07-02T05:45:37.747Z,21.00
2018-07-02T05:50:41.743Z,21.80
2018-07-02T05:55:45.778Z,22.20
2018-07-02T06:00:49.805Z,22.00
2018-07-02T06:05:53.824Z,21.90
2018-07-02T06:10:57.851Z,22.20
2018-07-02T06:16:01.922Z,22.30
2018-07-02T06:21:07.945Z,22.60
2018-07-02T06:26:11.941Z,23.20
2018-07-02T06:31:15.939Z,23.50
2018-07-02T06:36:20.128Z,24.10
2018-07-02T06:41:24.147Z,24.60
2018-07-02T06:46:28.175Z,24.50
2018-07-02T06:51:32.182Z,24.60
2018-07-02T06:56:36.195Z,25.10
2018-07-02T07:01:40.211Z,25.70
2018-07-02T07:06:45.152Z,26.20
2018-07-02T07:11:49.915Z,26.60
2018-07-02T07:16:54.867Z,26.70
2018-07-02T07:21:58.928Z,26.90
2018-07-02T07:27:02.908Z,24.00
2018-07-02T07:32:06.931Z,27.60
2018-07-02T07:37:10.944Z,27.80
2018-07-02T07:42:15.005Z,27.80
2018-07-02T07:47:19.020Z,28.40
2018-07-02T07:52:24.323Z,28.90
2018-07-02T07:57:28.351Z,29.30
2018-07-02T08:02:32.367Z,29.00
2018-07-02T08:07:36.371Z,29.40
2018-07-02T08:12:40.355Z,30.00
2018-07-02T08:17:44.381Z,30.50
2018-07-02T08:22:48.420Z,30.90
2018-07-02T08:27:52.428Z,30.60
2018-07-02T08:38:00.080Z,30.80
2018-07-02T08:43:04.067Z,31.60
2018-07-02T08:48:08.091Z,32.30
2018-07-02T08:53:12.935Z,31.50
2018-07-02T08:58:16.980Z,30.90
2018-07-02T09:03:21.079Z,31.90
2018-07-02T09:08:25.103Z,32.00
2018-07-02T09:13:29.123Z,32.30
2018-07-02T09:18:33.268Z,32.10
2018-07-02T09:23:37.252Z,31.80
2018-07-02T09:28:41.264Z,32.90
2018-07-02T09:33:45.704Z,33.70
2018-07-02T09:38:49.767Z,32.90
2018-07-02T09:43:54.075Z,32.50
2018-07-02T09:48:58.076Z,33.60
2018-07-02T09:54:02.272Z,34.50
2018-07-02T09:59:06.292Z,34.90
2018-07-02T10:09:13.949Z,34.50
2018-07-02T10:14:17.975Z,34.10
2018-07-02T10:19:22.005Z,34.60
2018-07-02T10:24:26.021Z,32.70
2018-07-02T10:29:30.024Z,33.90
2018-07-02T10:34:34.072Z,35.00
2018-07-02T10:39:38.100Z,35.20
2018-07-02T10:44:42.115Z,35.20
2018-07-02T10:49:46.126Z,34.60
2018-07-02T10:54:50.119Z,34.40
2018-07-02T10:59:54.147Z,36.60
2018-07-02T11:04:58.939Z,37.40
2018-07-02T11:10:03.891Z,36.30
2018-07-02T11:15:07.911Z,36.50
2018-07-02T11:20:12.110Z,37.00
2018-07-02T11:25:16.111Z,37.70
2018-07-02T11:30:20.196Z,36.40
2018-07-02T11:35:24.208Z,35.60
2018-07-02T11:40:28.198Z,36.70
2018-07-02T11:45:32.827Z,37.30
2018-07-02T11:50:36.857Z,37.50
2018-07-02T11:55:40.857Z,34.80
2018-07-02T12:00:44.846Z,35.60
2018-07-02T12:05:48.836Z,36.50
2018-07-02T12:10:52.863Z,36.50
2018-07-02T12:26:04.448Z,38.10
2018-07-02T12:31:09.172Z,37.80
2018-07-02T12:36:13.172Z,38.20
2018-07-02T12:41:17.285Z,37.40
2018-07-02T12:46:21.221Z,37.70
2018-07-02T12:51:25.335Z,37.70
2018-07-02T12:56:29.351Z,36.70
2018-07-02T13:01:34.248Z,38.60
2018-07-02T13:06:39.017Z,37.80
2018-07-02T13:11:43.001Z,38.00
2018-07-02T13:21:51.666Z,38.60
2018-07-02T13:26:55.680Z,39.40
2018-07-02T13:31:59.647Z,39.10
2018-07-02T13:37:03.648Z,38.10
2018-07-02T13:42:07.676Z,38.10
2018-07-02T13:47:11.671Z,38.60
2018-07-02T13:52:15.676Z,37.10
2018-07-02T13:57:19.723Z,35.50
2018-07-02T14:07:27.433Z,37.80
2018-07-02T14:12:31.401Z,38.10
2018-07-02T14:17:35.500Z,37.90
2018-07-02T14:22:39.519Z,38.50
2018-07-02T14:27:43.547Z,36.70
2018-07-02T14:32:47.600Z,36.90
2018-07-02T14:37:51.580Z,37.30
2018-07-02T14:42:55.698Z,36.70
2018-07-02T14:48:00.607Z,35.20
2018-07-02T14:53:04.612Z,35.10
2018-07-02T14:58:08.643Z,35.90
2018-07-02T15:03:12.736Z,36.20
2018-07-02T15:08:17.600Z,36.20
2018-07-02T15:13:22.490Z,36.30
2018-07-02T15:18:26.514Z,36.80
2018-07-02T15:23:30.579Z,35.80
2018-07-02T15:28:35.327Z,35.40
2018-07-02T15:33:39.338Z,34.90
2018-07-02T15:38:43.407Z,34.00
2018-07-02T15:43:47.497Z,34.40
2018-07-02T15:48:51.540Z,34.90
2018-07-02T15:53:55.752Z,34.20
2018-07-02T15:58:59.767Z,33.90
2018-07-02T16:04:03.771Z,33.20
2018-07-02T16:14:12.370Z,32.60
2018-07-02T16:19:16.406Z,32.30
2018-07-02T16:24:20.447Z,32.10
2018-07-02T16:29:24.509Z,32.90
2018-07-02T16:34:28.449Z,33.00
2018-07-02T16:39:32.478Z,33.20
2018-07-02T16:44:36.488Z,32.60
2018-07-02T16:49:40.515Z,31.90
2018-07-02T16:59:48.197Z,33.10
2018-07-02T17:04:52.199Z,32.40
2018-07-02T17:09:56.207Z,30.20
2018-07-02T17:20:04.389Z,29.30
2018-07-02T17:25:08.492Z,29.00
2018-07-02T17:30:12.567Z,28.80
2018-07-02T17:35:16.588Z,28.90
2018-07-02T17:40:20.627Z,28.60
2018-07-02T17:45:24.668Z,28.50
2018-07-02T17:50:28.797Z,28.80
2018-07-02T17:55:32.880Z,27.90
2018-07-02T18:00:36.892Z,27.50
2018-07-02T18:10:44.755Z,27.10
2018-07-02T18:15:48.759Z,27.40
2018-07-02T18:20:52.760Z,27.20
2018-07-02T18:25:57.552Z,26.90
2018-07-02T18:31:01.550Z,27.00
2018-07-02T18:36:06.334Z,27.40
2018-07-02T18:41:10.352Z,27.30
2018-07-02T18:46:20.284Z,26.50
2018-07-02T18:51:30.382Z,26.10
2018-07-02T18:56:35.220Z,26.10
2018-07-02T19:01:39.228Z,25.90
2018-07-02T19:06:43.220Z,26.40
2018-07-02T19:11:47.231Z,26.50
2018-07-02T19:16:51.228Z,26.30
2018-07-02T19:21:56.072Z,26.00
2018-07-02T19:27:00.236Z,25.60
2018-07-02T19:32:04.243Z,25.80
2018-07-02T19:37:08.237Z,25.50
2018-07-02T19:42:12.270Z,25.40
2018-07-02T19:47:16.335Z,25.30
2018-07-02T19:52:20.348Z,24.90
2018-07-02T19:57:24.383Z,25.10
2018-07-02T20:02:28.392Z,24.80
2018-07-02T20:07:34.100Z,24.90
2018-07-02T20:12:38.104Z,24.90
2018-07-02T20:22:46.573Z,24.20
2018-07-02T20:27:50.591Z,24.00
2018-07-02T20:32:54.593Z,24.20
2018-07-02T20:37:58.602Z,24.20
2018-07-02T20:43:02.611Z,24.00
2018-07-02T20:48:06.679Z,23.80
2018-07-02T20:53:10.759Z,23.70
2018-07-02T21:03:18.440Z,23.50
2018-07-02T21:08:25.958Z,23.40
2018-07-02T21:13:29.974Z,23.60
2018-07-02T21:18:34.013Z,23.20
2018-07-02T21:23:38.012Z,23.10
2018-07-02T21:28:43.285Z,23.10
2018-07-02T21:33:48.121Z,23.00
2018-07-02T21:38:52.269Z,22.50
2018-07-02T21:49:00.101Z,22.30
2018-07-02T21:54:04.126Z,22.20
2018-07-02T21:59:08.851Z,22.00
2018-07-02T22:04:12.830Z,22.10
2018-07-02T22:09:17.808Z,22.00
2018-07-02T22:19:25.484Z,21.60
2018-07-02T22:24:29.468Z,21.80
2018-07-02T22:29:33.511Z,21.60
2018-07-02T22:34:37.535Z,21.40
2018-07-02T22:39:56.430Z,21.40
2018-07-02T22:45:00.429Z,21.40
2018-07-02T22:50:04.432Z,21.20
2018-07-02T22:55:08.416Z,21.60
2018-07-02T23:00:13.883Z,21.20
2018-07-02T23:05:17.891Z,21.10
2018-07-02T23:10:21.911Z,21.20
2018-07-02T23:15:25.928Z,20.80
2018-07-02T23:20:29.931Z,21.20
2018-07-02T23:30:37.576Z,21.40
2018-07-02T23:40:45.224Z,21.30
2018-07-02T23:45:49.227Z,21.50
2018-07-02T23:50:53.228Z,21.20
2018-07-02T23:55:57.240Z,20.90
